createdAt,value
2022-07-25T00:00:25.306Z,23.70
2022-07-25T00:02:52.310Z,23.80
2022-07-25T00:05:19.485Z,23.80
2022-07-25T00:07:46.348Z,23.90
2022-07-25T00:10:13.228Z,23.90
2022-07-25T00:12:40.433Z,23.90
2022-07-25T00:15:07.879Z,23.90
2022-07-25T00:17:34.832Z,23.80
2022-07-25T00:20:02.289Z,23.80
2022-07-25T00:22:29.080Z,23.80
2022-07-25T00:24:55.860Z,23.80
2022-07-25T00:27:22.711Z,23.80
2022-07-25T00:29:49.889Z,23.70
2022-07-25T00:32:17.087Z,23.70
2022-07-25T00:34:44.343Z,23.60
2022-07-25T00:37:11.160Z,23.60
2022-07-25T00:39:38.072Z,23.60
2022-07-25T00:42:05.156Z,23.60
2022-07-25T00:44:33.053Z,23.60
2022-07-25T00:47:00.498Z,23.50
2022-07-25T00:49:27.694Z,23.50
2022-07-25T00:51:55.352Z,23.50
2022-07-25T00:54:22.576Z,23.40
2022-07-25T00:56:50.426Z,23.40
2022-07-25T00:59:18.053Z,23.40
2022-07-25T01:01:48.075Z,23.30
2022-07-25T01:04:16.875Z,23.40
2022-07-25T01:06:43.966Z,23.40
2022-07-25T01:09:11.058Z,23.40
2022-07-25T01:11:38.944Z,23.40
2022-07-25T01:14:07.241Z,23.40
2022-07-25T01:16:34.332Z,23.40
2022-07-25T01:19:01.568Z,23.30
2022-07-25T01:21:28.504Z,23.30
2022-07-25T01:23:55.737Z,23.30
2022-07-25T01:26:22.925Z,23.30
2022-07-25T01:28:49.740Z,23.30
2022-07-25T01:31:16.751Z,23.20
2022-07-25T01:33:44.048Z,23.00
2022-07-25T01:36:11.393Z,23.00
2022-07-25T01:38:38.144Z,23.00
2022-07-25T01:41:05.081Z,22.80
2022-07-25T01:43:31.971Z,22.80
2022-07-25T01:45:58.831Z,22.70
2022-07-25T01:48:25.808Z,22.60
2022-07-25T01:50:53.448Z,22.60
2022-07-25T01:53:21.824Z,22.70
2022-07-25T01:55:48.633Z,22.70
2022-07-25T01:58:15.444Z,22.40
2022-07-25T02:00:42.328Z,22.20
2022-07-25T02:03:27.945Z,22.00
2022-07-25T02:05:55.505Z,22.00
2022-07-25T02:08:23.352Z,22.00
2022-07-25T02:10:50.754Z,22.00
2022-07-25T02:13:18.944Z,21.90
2022-07-25T02:15:45.852Z,21.70
2022-07-25T02:18:12.782Z,21.60
2022-07-25T02:20:39.667Z,21.50
2022-07-25T02:23:07.010Z,21.40
2022-07-25T02:25:34.004Z,21.40
2022-07-25T02:28:01.010Z,21.40
2022-07-25T02:30:28.255Z,21.50
2022-07-25T02:32:55.205Z,21.50
2022-07-25T02:35:22.033Z,21.60
2022-07-25T02:37:49.265Z,21.60
2022-07-25T02:40:16.515Z,21.70
2022-07-25T02:42:43.261Z,21.60
2022-07-25T02:45:10.908Z,21.60
2022-07-25T02:47:37.828Z,21.50
2022-07-25T02:50:05.075Z,21.40
2022-07-25T02:52:31.924Z,21.40
2022-07-25T02:54:59.082Z,21.40
2022-07-25T02:57:26.296Z,21.40
2022-07-25T02:59:53.058Z,21.50
2022-07-25T03:02:19.834Z,21.50
2022-07-25T03:04:46.695Z,21.60
2022-07-25T03:07:13.891Z,21.60
2022-07-25T03:09:40.759Z,21.60
2022-07-25T03:12:07.500Z,21.70
2022-07-25T03:14:34.332Z,21.60
2022-07-25T03:17:01.573Z,21.80
2022-07-25T03:19:28.664Z,21.90
2022-07-25T03:21:55.472Z,22.00
2022-07-25T03:24:22.640Z,21.90
2022-07-25T03:26:49.673Z,21.70
2022-07-25T03:29:16.853Z,21.60
2022-07-25T03:31:43.668Z,21.60
2022-07-25T03:34:10.585Z,21.70
2022-07-25T03:36:37.365Z,21.80
2022-07-25T03:39:05.576Z,21.80
2022-07-25T03:41:33.229Z,21.80
2022-07-25T03:44:00.112Z,21.90
2022-07-25T03:46:27.015Z,21.90
2022-07-25T03:48:55.608Z,21.80
2022-07-25T03:51:22.553Z,21.80
2022-07-25T03:54:05.269Z,21.90
2022-07-25T03:56:43.361Z,21.90
2022-07-25T03:59:12.285Z,21.90
2022-07-25T04:01:39.287Z,21.80
2022-07-25T04:04:06.464Z,21.80
2022-07-25T04:06:33.658Z,21.80
2022-07-25T04:09:00.501Z,21.90
2022-07-25T04:11:28.697Z,22.00
2022-07-25T04:13:55.534Z,22.00
2022-07-25T04:16:22.986Z,22.10
2022-07-25T04:18:52.053Z,22.20
2022-07-25T04:21:18.922Z,22.20
2022-07-25T04:23:45.764Z,22.20
2022-07-25T04:26:12.549Z,22.30
2022-07-25T04:28:39.330Z,22.20
2022-07-25T04:31:06.188Z,22.20
2022-07-25T04:33:32.956Z,22.20
2022-07-25T04:36:00.336Z,22.10
2022-07-25T04:38:27.506Z,22.00
2022-07-25T04:40:54.763Z,22.10
2022-07-25T04:43:21.767Z,22.20
2022-07-25T04:45:48.620Z,22.20
2022-07-25T04:48:15.563Z,22.20
2022-07-25T04:50:42.576Z,22.20
2022-07-25T04:53:09.421Z,22.20
2022-07-25T04:55:38.802Z,22.30
2022-07-25T04:58:06.433Z,22.40
2022-07-25T05:00:33.741Z,22.50
2022-07-25T05:03:00.989Z,22.50
2022-07-25T05:05:27.923Z,22.60
2022-07-25T05:07:59.247Z,22.60
2022-07-25T05:10:27.907Z,22.80
2022-07-25T05:12:54.949Z,22.90
2022-07-25T05:15:21.998Z,23.00
2022-07-25T05:17:48.820Z,23.00
2022-07-25T05:20:15.616Z,23.00
2022-07-25T05:22:42.681Z,23.10
2022-07-25T05:25:11.973Z,23.20
2022-07-25T05:27:39.439Z,23.40
2022-07-25T05:30:08.562Z,23.50
2022-07-25T05:32:35.467Z,23.60
2022-07-25T05:35:03.328Z,23.70
2022-07-25T05:37:30.183Z,23.70
2022-07-25T05:39:56.966Z,23.70
2022-07-25T05:42:23.719Z,23.80
2022-07-25T05:44:50.497Z,23.90
2022-07-25T05:47:17.299Z,23.90
2022-07-25T05:49:44.979Z,23.80
2022-07-25T05:52:13.329Z,23.80
2022-07-25T05:54:40.669Z,23.80
2022-07-25T05:57:07.902Z,23.90
2022-07-25T05:59:34.880Z,23.90
2022-07-25T06:02:02.455Z,24.00
2022-07-25T06:04:29.460Z,24.00
2022-07-25T06:06:56.369Z,24.00
2022-07-25T06:09:24.040Z,24.00
2022-07-25T06:12:00.423Z,24.10
2022-07-25T06:14:29.620Z,24.20
2022-07-25T06:16:57.359Z,24.30
2022-07-25T06:19:24.693Z,24.50
2022-07-25T06:21:51.860Z,24.60
2022-07-25T06:24:19.125Z,24.80
2022-07-25T06:26:45.911Z,24.90
2022-07-25T06:29:13.128Z,25.10
2022-07-25T06:31:40.009Z,25.20
2022-07-25T06:34:07.466Z,25.30
2022-07-25T06:36:34.879Z,25.40
2022-07-25T06:39:02.571Z,25.60
2022-07-25T06:41:29.437Z,25.70
2022-07-25T06:43:56.251Z,25.80
2022-07-25T06:46:23.139Z,26.00
2022-07-25T06:48:50.077Z,26.00
2022-07-25T06:51:16.985Z,26.10
2022-07-25T06:53:43.776Z,26.20
2022-07-25T06:56:15.722Z,26.30
2022-07-25T06:58:44.292Z,26.40
2022-07-25T07:01:11.231Z,26.50
2022-07-25T07:03:39.973Z,26.40
2022-07-25T07:06:09.347Z,26.40
2022-07-25T07:08:36.692Z,26.40
2022-07-25T07:11:03.932Z,26.50
2022-07-25T07:13:30.771Z,26.60
2022-07-25T07:15:58.404Z,26.70
2022-07-25T07:18:26.052Z,26.70
2022-07-25T07:20:53.529Z,26.80
2022-07-25T07:23:20.382Z,26.80
2022-07-25T07:25:47.769Z,26.90
2022-07-25T07:28:15.737Z,27.00
2022-07-25T07:33:30.436Z,27.20
2022-07-25T07:35:57.329Z,27.40
2022-07-25T07:38:25.838Z,27.50
2022-07-25T07:40:53.893Z,27.60
2022-07-25T07:43:23.074Z,27.70
2022-07-25T07:45:52.347Z,27.80
2022-07-25T07:48:19.084Z,28.00
2022-07-25T07:50:46.071Z,28.10
2022-07-25T07:53:13.265Z,28.20
2022-07-25T07:55:48.475Z,28.40
2022-07-25T07:58:17.448Z,28.40
2022-07-25T08:00:46.517Z,28.50
2022-07-25T08:03:17.218Z,28.60
2022-07-25T08:05:45.369Z,28.80
2022-07-25T08:08:14.863Z,28.90
2022-07-25T08:10:45.733Z,29.00
2022-07-25T08:13:17.617Z,29.10
2022-07-25T08:15:46.313Z,29.20
2022-07-25T08:18:17.196Z,29.30
2022-07-25T08:20:49.096Z,29.30
2022-07-25T08:23:17.009Z,29.40
2022-07-25T08:25:44.894Z,29.50
2022-07-25T08:28:12.148Z,29.50
2022-07-25T08:30:40.199Z,29.60
2022-07-25T08:33:10.664Z,29.70
2022-07-25T08:35:37.719Z,29.70
2022-07-25T08:38:05.337Z,29.80
2022-07-25T08:40:33.642Z,29.80
2022-07-25T08:43:00.737Z,29.90
2022-07-25T08:45:28.850Z,30.00
2022-07-25T08:47:56.497Z,30.00
2022-07-25T08:50:26.690Z,30.00
2022-07-25T08:53:10.045Z,30.10
2022-07-25T08:55:42.401Z,30.20
2022-07-25T08:58:11.883Z,30.30
2022-07-25T09:00:39.223Z,30.40
2022-07-25T09:03:06.700Z,30.40
2022-07-25T09:05:34.461Z,30.50
2022-07-25T09:08:12.642Z,30.60
2022-07-25T09:10:45.335Z,30.60
2022-07-25T09:13:14.572Z,30.70
2022-07-25T09:15:52.819Z,30.80
2022-07-25T09:18:24.300Z,30.80
2022-07-25T09:20:54.138Z,30.80
2022-07-25T09:23:27.300Z,31.00
2022-07-25T09:26:11.944Z,31.10
2022-07-25T09:28:45.146Z,31.10
2022-07-25T09:31:13.491Z,31.20
2022-07-25T09:33:56.500Z,31.30
2022-07-25T09:36:24.173Z,31.40
2022-07-25T09:38:57.848Z,31.50
2022-07-25T09:41:36.174Z,31.60
2022-07-25T09:44:04.046Z,31.60
2022-07-25T09:46:32.564Z,31.70
2022-07-25T09:49:00.940Z,31.90
2022-07-25T09:51:29.225Z,31.90
2022-07-25T09:53:56.098Z,32.00
2022-07-25T09:56:22.892Z,32.00
2022-07-25T09:58:49.755Z,32.00
2022-07-25T10:01:25.423Z,32.10
2022-07-25T10:04:14.536Z,32.20
2022-07-25T10:07:09.738Z,32.20
2022-07-25T10:09:48.135Z,32.20
2022-07-25T10:12:20.087Z,32.20
2022-07-25T10:15:12.250Z,32.30
2022-07-25T10:17:40.970Z,32.40
2022-07-25T10:20:11.227Z,32.40
2022-07-25T10:22:56.186Z,32.50
2022-07-25T10:25:23.635Z,32.60
2022-07-25T10:27:58.430Z,32.60
2022-07-25T10:30:27.524Z,32.70
2022-07-25T10:33:04.351Z,32.80
2022-07-25T10:35:31.441Z,33.00
2022-07-25T10:37:59.709Z,33.00
2022-07-25T10:40:41.434Z,33.10
2022-07-25T10:43:21.247Z,33.20
2022-07-25T10:45:58.180Z,33.10
2022-07-25T10:48:28.979Z,33.20
2022-07-25T10:51:00.703Z,33.30
2022-07-25T10:53:39.619Z,33.30
2022-07-25T10:56:07.430Z,33.30
2022-07-25T10:58:46.630Z,33.50
2022-07-25T11:01:19.190Z,33.50
2022-07-25T11:03:46.076Z,33.50
2022-07-25T11:06:15.143Z,33.60
2022-07-25T11:08:44.003Z,33.60
2022-07-25T11:11:12.284Z,33.60
2022-07-25T11:13:43.049Z,33.70
2022-07-25T11:16:10.886Z,33.70
2022-07-25T11:18:42.435Z,33.70
2022-07-25T11:21:09.655Z,33.80
2022-07-25T11:23:37.153Z,34.00
2022-07-25T11:26:09.746Z,34.00
2022-07-25T11:28:41.733Z,34.10
2022-07-25T11:31:08.645Z,34.10
2022-07-25T11:33:38.675Z,34.10
2022-07-25T11:36:06.915Z,34.20
2022-07-25T11:38:36.296Z,34.20
2022-07-25T11:41:03.590Z,34.30
2022-07-25T11:43:30.366Z,34.30
2022-07-25T11:46:02.337Z,34.30
2022-07-25T11:48:40.280Z,34.40
2022-07-25T11:51:19.422Z,34.60
2022-07-25T11:53:51.463Z,34.80
2022-07-25T11:56:41.841Z,34.90
2022-07-25T11:59:10.827Z,35.00
2022-07-25T12:01:42.887Z,35.10
2022-07-25T12:04:18.543Z,35.20
2022-07-25T12:06:47.425Z,35.20
2022-07-25T12:09:19.806Z,35.10
2022-07-25T12:11:48.420Z,35.10
2022-07-25T12:14:16.354Z,35.10
2022-07-25T12:16:43.731Z,35.00
2022-07-25T12:19:19.307Z,35.00
2022-07-25T12:21:46.456Z,35.00
2022-07-25T12:24:13.316Z,35.00
2022-07-25T12:26:40.220Z,35.30
2022-07-25T12:29:07.283Z,35.40
2022-07-25T12:31:34.797Z,35.50
2022-07-25T12:34:02.142Z,35.60
2022-07-25T12:36:28.986Z,35.50
2022-07-25T12:38:56.172Z,35.50
2022-07-25T12:41:23.639Z,35.50
2022-07-25T12:43:50.492Z,35.70
2022-07-25T12:46:17.502Z,35.80
2022-07-25T12:48:44.635Z,35.90
2022-07-25T12:51:11.461Z,36.20
2022-07-25T12:53:42.274Z,36.20
2022-07-25T12:56:09.724Z,36.40
2022-07-25T12:58:37.117Z,36.60
2022-07-25T13:01:06.029Z,36.90
2022-07-25T13:03:33.021Z,37.00
2022-07-25T13:06:00.202Z,37.20
2022-07-25T13:08:27.520Z,37.40
2022-07-25T13:10:54.807Z,37.80
2022-07-25T13:13:21.570Z,38.00
2022-07-25T13:15:48.654Z,38.10
2022-07-25T13:18:15.413Z,38.40
2022-07-25T13:20:42.214Z,39.00
2022-07-25T13:23:09.041Z,39.40
2022-07-25T13:25:36.429Z,39.90
2022-07-25T13:28:04.321Z,40.50
2022-07-25T13:30:37.932Z,41.30
2022-07-25T13:33:04.953Z,42.20
2022-07-25T13:35:38.839Z,43.30
2022-07-25T13:38:08.644Z,44.30
2022-07-25T13:40:37.416Z,45.30
2022-07-25T13:43:04.192Z,46.30
2022-07-25T13:45:31.303Z,47.40
2022-07-25T13:48:12.442Z,48.20
2022-07-25T13:50:44.908Z,49.00
2022-07-25T13:53:11.835Z,49.70
2022-07-25T13:55:39.078Z,49.80
2022-07-25T13:58:06.351Z,50.00
2022-07-25T14:00:33.204Z,50.30
2022-07-25T14:03:00.018Z,50.80
2022-07-25T14:05:27.005Z,51.40
2022-07-25T14:07:53.766Z,51.40
2022-07-25T14:10:21.029Z,51.40
2022-07-25T14:12:47.892Z,51.40
2022-07-25T14:15:14.653Z,51.50
2022-07-25T14:17:41.934Z,52.10
2022-07-25T14:20:09.563Z,51.80
2022-07-25T14:22:36.625Z,51.60
2022-07-25T14:25:03.537Z,51.90
2022-07-25T14:27:30.352Z,52.20
2022-07-25T14:29:57.279Z,51.50
2022-07-25T14:32:24.046Z,51.30
2022-07-25T14:34:52.586Z,51.20
2022-07-25T14:37:21.205Z,51.50
2022-07-25T14:39:48.681Z,51.80
2022-07-25T14:42:15.776Z,51.40
2022-07-25T14:44:42.625Z,51.20
2022-07-25T14:47:12.533Z,51.30
2022-07-25T14:49:41.149Z,51.50
2022-07-25T14:52:08.025Z,51.50
2022-07-25T14:54:34.995Z,51.70
2022-07-25T14:57:02.661Z,51.80
2022-07-25T14:59:29.683Z,51.00
2022-07-25T15:01:56.902Z,51.00
2022-07-25T15:04:25.266Z,51.40
2022-07-25T15:06:52.881Z,51.50
2022-07-25T15:09:21.106Z,51.80
2022-07-25T15:11:49.047Z,51.70
2022-07-25T15:14:16.399Z,51.40
2022-07-25T15:16:43.925Z,51.10
2022-07-25T15:19:16.524Z,51.20
2022-07-25T15:21:44.279Z,51.00
2022-07-25T15:24:11.137Z,51.10
2022-07-25T15:26:38.174Z,51.40
2022-07-25T15:29:10.453Z,51.20
2022-07-25T15:31:38.143Z,51.10
2022-07-25T15:34:05.279Z,50.50
2022-07-25T15:36:32.299Z,50.50
2022-07-25T15:38:59.141Z,50.40
2022-07-25T15:41:26.741Z,50.10
2022-07-25T15:43:53.847Z,49.80
2022-07-25T15:46:21.042Z,49.70
2022-07-25T15:48:49.288Z,49.80
2022-07-25T15:51:16.983Z,49.90
2022-07-25T15:53:44.289Z,49.90
2022-07-25T15:56:16.183Z,49.90
2022-07-25T15:58:44.118Z,49.60
2022-07-25T16:01:11.476Z,49.20
2022-07-25T16:03:38.545Z,49.60
2022-07-25T16:06:05.757Z,49.50
2022-07-25T16:08:32.592Z,49.10
2022-07-25T16:11:00.193Z,49.10
2022-07-25T16:13:28.030Z,48.80
2022-07-25T16:15:55.896Z,48.70
2022-07-25T16:18:23.226Z,48.50
2022-07-25T16:20:50.364Z,48.20
2022-07-25T16:23:17.193Z,48.00
2022-07-25T16:25:43.995Z,47.40
2022-07-25T16:28:10.781Z,46.50
2022-07-25T16:30:37.624Z,46.50
2022-07-25T16:33:04.624Z,46.20
2022-07-25T16:35:32.639Z,45.90
2022-07-25T16:37:59.393Z,45.50
2022-07-25T16:40:30.733Z,45.20
2022-07-25T16:42:58.810Z,45.40
2022-07-25T16:45:26.369Z,44.90
2022-07-25T16:47:53.246Z,44.20
2022-07-25T16:50:20.470Z,43.30
2022-07-25T16:52:48.397Z,42.50
2022-07-25T16:55:15.238Z,42.10
2022-07-25T16:57:42.050Z,41.80
2022-07-25T17:00:10.064Z,41.70
2022-07-25T17:02:37.005Z,41.40
2022-07-25T17:05:04.562Z,41.40
2022-07-25T17:07:31.605Z,41.10
2022-07-25T17:09:58.847Z,40.70
2022-07-25T17:12:25.833Z,40.20
2022-07-25T17:14:52.615Z,40.10
2022-07-25T17:17:19.463Z,39.60
2022-07-25T17:19:46.365Z,38.90
2022-07-25T17:22:13.497Z,38.90
2022-07-25T17:24:40.700Z,38.50
2022-07-25T17:27:08.997Z,38.30
2022-07-25T17:29:36.821Z,38.10
2022-07-25T17:32:05.992Z,38.00
2022-07-25T17:34:33.100Z,37.70
2022-07-25T17:37:03.205Z,37.50
2022-07-25T17:39:34.095Z,37.20
2022-07-25T17:42:01.348Z,37.00
2022-07-25T17:44:28.196Z,36.80
2022-07-25T17:46:55.901Z,36.60
2022-07-25T17:49:22.798Z,36.40
2022-07-25T17:51:50.074Z,36.10
2022-07-25T17:54:17.452Z,35.90
2022-07-25T17:56:45.505Z,35.70
2022-07-25T17:59:12.628Z,35.50
2022-07-25T18:01:40.067Z,35.30
2022-07-25T18:04:07.564Z,35.10
2022-07-25T18:06:34.762Z,34.90
2022-07-25T18:09:01.558Z,34.60
2022-07-25T18:11:28.734Z,34.40
2022-07-25T18:13:55.556Z,34.10
2022-07-25T18:16:23.110Z,34.00
2022-07-25T18:18:50.332Z,33.70
2022-07-25T18:21:17.902Z,33.50
2022-07-25T18:23:44.867Z,33.30
2022-07-25T18:26:11.752Z,33.10
2022-07-25T18:28:38.600Z,32.90
2022-07-25T18:31:05.938Z,32.60
2022-07-25T18:33:32.860Z,32.50
2022-07-25T18:36:04.224Z,32.30
2022-07-25T18:38:35.538Z,32.10
2022-07-25T18:41:27.678Z,32.00
2022-07-25T18:43:51.637Z,31.80
2022-07-25T18:46:18.964Z,31.70
2022-07-25T18:48:46.776Z,31.60
2022-07-25T18:51:13.562Z,31.40
2022-07-25T18:53:42.852Z,31.40
2022-07-25T18:56:13.384Z,31.20
2022-07-25T18:58:40.632Z,31.10
2022-07-25T19:01:09.219Z,31.00
2022-07-25T19:03:37.518Z,30.90
2022-07-25T19:06:05.161Z,30.80
2022-07-25T19:08:32.696Z,30.70
2022-07-25T19:11:00.252Z,30.60
2022-07-25T19:13:48.317Z,30.40
2022-07-25T19:16:15.967Z,30.30
2022-07-25T19:18:43.199Z,30.30
2022-07-25T19:21:11.017Z,30.20
2022-07-25T19:23:37.871Z,30.10
2022-07-25T19:26:05.433Z,30.10
2022-07-25T19:28:32.532Z,30.00
2022-07-25T19:30:59.426Z,29.90
2022-07-25T19:33:34.739Z,29.80
2022-07-25T19:36:04.082Z,29.70
2022-07-25T19:38:31.089Z,29.60
2022-07-25T19:40:58.141Z,29.00
2022-07-25T19:43:25.403Z,29.40
2022-07-25T19:45:52.383Z,29.40
2022-07-25T19:48:23.614Z,29.30
2022-07-25T19:50:52.427Z,29.20
2022-07-25T19:53:21.316Z,29.20
2022-07-25T19:55:51.778Z,29.10
2022-07-25T19:58:18.765Z,29.00
2022-07-25T20:00:46.051Z,28.90
2022-07-25T20:03:12.996Z,30.00
2022-07-25T20:05:41.102Z,28.50
2022-07-25T20:08:07.947Z,28.80
2022-07-25T20:10:34.752Z,28.80
2022-07-25T20:13:01.828Z,28.70
2022-07-25T20:15:29.186Z,28.60
2022-07-25T20:17:57.036Z,28.50
2022-07-25T20:20:25.278Z,28.40
2022-07-25T20:22:52.893Z,28.30
2022-07-25T20:25:20.178Z,28.20
2022-07-25T20:27:49.675Z,28.10
2022-07-25T20:30:17.284Z,28.00
2022-07-25T20:32:44.124Z,28.00
2022-07-25T20:35:11.003Z,27.90
2022-07-25T20:37:37.753Z,27.80
2022-07-25T20:40:07.047Z,27.70
2022-07-25T20:42:36.649Z,27.80
2022-07-25T20:45:08.548Z,27.80
2022-07-25T20:47:35.801Z,27.80
2022-07-25T20:50:03.340Z,27.80
2022-07-25T20:52:33.724Z,27.80
2022-07-25T20:55:00.701Z,27.80
2022-07-25T20:57:34.384Z,27.70
2022-07-25T21:00:01.224Z,27.70
2022-07-25T21:02:28.176Z,27.60
2022-07-25T21:04:55.431Z,27.60
2022-07-25T21:07:22.244Z,27.60
2022-07-25T21:09:49.192Z,27.50
2022-07-25T21:12:19.172Z,27.50
2022-07-25T21:14:45.990Z,27.40
2022-07-25T21:17:13.180Z,27.30
2022-07-25T21:19:40.194Z,26.80
2022-07-25T21:22:07.274Z,27.10
2022-07-25T21:24:34.691Z,27.10
2022-07-25T21:27:01.993Z,27.00
2022-07-25T21:29:28.812Z,26.90
2022-07-25T21:31:56.057Z,26.90
2022-07-25T21:34:22.891Z,26.90
2022-07-25T21:36:49.721Z,27.00
2022-07-25T21:39:16.727Z,27.00
2022-07-25T21:41:44.833Z,27.00
2022-07-25T21:44:13.922Z,27.00
2022-07-25T21:46:40.853Z,27.00
2022-07-25T21:49:40.947Z,27.00
2022-07-25T21:52:09.165Z,27.00
2022-07-25T21:54:43.935Z,26.90
2022-07-25T21:57:13.498Z,26.90
2022-07-25T21:59:42.232Z,26.90
2022-07-25T22:02:09.853Z,26.80
2022-07-25T22:04:37.623Z,26.80
2022-07-25T22:07:04.541Z,26.70
2022-07-25T22:09:31.435Z,26.70
2022-07-25T22:11:58.771Z,26.60
2022-07-25T22:14:26.022Z,26.60
2022-07-25T22:16:53.478Z,26.50
2022-07-25T22:19:22.685Z,26.50
2022-07-25T22:21:50.161Z,26.40
2022-07-25T22:24:17.276Z,26.40
2022-07-25T22:26:44.127Z,26.40
2022-07-25T22:29:11.642Z,26.40
2022-07-25T22:31:39.280Z,26.30
2022-07-25T22:34:06.665Z,26.30
2022-07-25T22:36:33.713Z,26.30
2022-07-25T22:39:00.576Z,26.20
2022-07-25T22:41:27.823Z,26.20
2022-07-25T22:43:58.897Z,26.10
2022-07-25T22:46:30.624Z,26.10
2022-07-25T22:48:58.747Z,26.10
2022-07-25T22:51:26.475Z,26.10
2022-07-25T22:53:53.853Z,25.90
2022-07-25T22:56:21.937Z,25.90
2022-07-25T22:58:49.512Z,25.90
2022-07-25T23:01:17.873Z,25.80
2022-07-25T23:03:45.316Z,25.80
2022-07-25T23:06:12.432Z,25.70
2022-07-25T23:08:39.600Z,25.70
2022-07-25T23:11:06.542Z,25.60
2022-07-25T23:13:34.166Z,25.50
2022-07-25T23:16:03.446Z,25.50
2022-07-25T23:18:30.856Z,25.40
2022-07-25T23:20:57.943Z,25.40
2022-07-25T23:23:25.343Z,25.40
2022-07-25T23:25:52.866Z,25.30
2022-07-25T23:28:19.824Z,25.30
2022-07-25T23:30:46.616Z,25.20
2022-07-25T23:33:13.772Z,25.20
2022-07-25T23:35:42.315Z,25.10
2022-07-25T23:38:10.871Z,25.10
2022-07-25T23:40:37.676Z,25.00
2022-07-25T23:43:04.986Z,25.00
2022-07-25T23:45:31.702Z,25.00
2022-07-25T23:47:58.482Z,25.00
2022-07-25T23:50:25.631Z,25.00
2022-07-25T23:52:53.535Z,25.00
2022-07-25T23:55:20.508Z,24.90
2022-07-25T23:57:47.490Z,24.80
